createdAt,value
2018-04-14T00:01:00.909Z,8.4
2018-04-14T00:02:08.114Z,8.4
2018-04-14T00:03:15.329Z,8.4
2018-04-14T00:04:22.569Z,8.4
2018-04-14T00:05:29.792Z,8.4
2018-04-14T00:06:37.001Z,8.4
2018-04-14T00:07:43.946Z,8.4
2018-04-14T00:08:51.153Z,8.3
2018-04-14T00:09:58.116Z,8.3
2018-04-14T00:11:05.323Z,8.3
2018-04-14T00:12:12.528Z,8.3
2018-04-14T00:13:19.735Z,8.3
2018-04-14T00:14:26.958Z,8.3
2018-04-14T00:15:34.159Z,8.3
2018-04-14T00:16:41.386Z,8.3
2018-04-14T00:17:48.590Z,8.3
2018-04-14T00:18:55.794Z,8.3
2018-04-14T00:20:03.005Z,8.3
2018-04-14T00:21:10.212Z,8.3
2018-04-14T00:22:17.143Z,8.2
2018-04-14T00:23:24.350Z,8.3
2018-04-14T00:24:31.553Z,8.3
2018-04-14T00:25:38.473Z,8.2
2018-04-14T00:26:45.675Z,8.2
2018-04-14T00:27:52.870Z,8.2
2018-04-14T00:29:00.078Z,8.2
2018-04-14T00:30:07.276Z,8.1
2018-04-14T00:31:14.477Z,8.1
2018-04-14T00:32:21.682Z,8.1
2018-04-14T00:33:28.882Z,8.1
2018-04-14T00:34:36.091Z,8
2018-04-14T00:35:43.036Z,8
2018-04-14T00:36:50.245Z,8
2018-04-14T00:37:57.460Z,8
2018-04-14T00:39:04.678Z,7.9
2018-04-14T00:40:11.906Z,7.9
2018-04-14T00:41:19.117Z,7.9
2018-04-14T00:42:26.325Z,7.8
2018-04-14T00:43:33.531Z,7.8
2018-04-14T00:44:55.379Z,7.8
2018-04-14T00:46:02.315Z,7.7
2018-04-14T00:47:09.515Z,7.6
2018-04-14T00:48:16.449Z,7.6
2018-04-14T00:49:23.660Z,7.6
2018-04-14T00:50:30.864Z,7.5
2018-04-14T00:51:38.158Z,7.5
2018-04-14T00:52:45.366Z,7.4
2018-04-14T00:53:52.589Z,7.4
2018-04-14T00:54:59.795Z,7.4
2018-04-14T00:56:07.272Z,7.4
2018-04-14T00:57:14.475Z,7.3
2018-04-14T00:58:21.127Z,7.3
2018-04-14T00:59:28.057Z,7.3
2018-04-14T01:00:35.265Z,7.3
2018-04-14T01:01:42.471Z,7.3
2018-04-14T01:02:49.678Z,7.3
2018-04-14T01:03:56.888Z,7.3
2018-04-14T01:05:04.108Z,7.2
2018-04-14T01:06:11.310Z,7.2
2018-04-14T01:07:18.535Z,7.2
2018-04-14T01:08:25.736Z,7.2
2018-04-14T01:09:32.944Z,7.2
2018-04-14T01:10:40.146Z,7.3
2018-04-14T01:11:47.347Z,7.3
2018-04-14T01:12:54.558Z,7.3
2018-04-14T01:14:01.520Z,7.4
2018-04-14T01:15:08.450Z,7.4
2018-04-14T01:16:15.653Z,7.3
2018-04-14T01:17:22.859Z,7.4
2018-04-14T01:18:29.787Z,7.3
2018-04-14T01:19:36.996Z,7.3
2018-04-14T01:20:43.918Z,7.3
2018-04-14T01:21:51.117Z,7.3
2018-04-14T01:22:58.040Z,7.2
2018-04-14T01:24:05.243Z,7.2
2018-04-14T01:25:12.443Z,7.2
2018-04-14T01:26:19.393Z,7.2
2018-04-14T01:27:26.323Z,7.2
2018-04-14T01:28:33.255Z,7.2
2018-04-14T01:29:40.456Z,7.1
2018-04-14T01:30:47.664Z,7.1
2018-04-14T01:31:54.594Z,7.1
2018-04-14T01:33:01.794Z,7
2018-04-14T01:34:08.989Z,7
2018-04-14T01:35:16.191Z,6.9
2018-04-14T01:36:23.117Z,6.9
2018-04-14T01:37:30.335Z,6.8
2018-04-14T01:38:37.542Z,6.8
2018-04-14T01:39:44.762Z,6.8
2018-04-14T01:40:51.979Z,6.7
2018-04-14T01:41:59.196Z,6.7
2018-04-14T01:43:06.118Z,6.7
2018-04-14T01:44:13.312Z,6.7
2018-04-14T01:45:20.513Z,6.8
2018-04-14T01:46:27.724Z,6.7
2018-04-14T01:47:34.921Z,6.7
2018-04-14T01:48:42.139Z,6.7
2018-04-14T01:49:49.341Z,6.7
2018-04-14T01:50:56.547Z,6.7
2018-04-14T01:52:03.754Z,6.7
2018-04-14T01:53:10.966Z,6.7
2018-04-14T01:54:18.175Z,6.7
2018-04-14T01:55:25.388Z,6.7
2018-04-14T01:56:32.598Z,6.6
2018-04-14T01:57:39.817Z,6.6
2018-04-14T01:58:47.019Z,6.6
2018-04-14T01:59:54.439Z,6.5
2018-04-14T02:01:01.642Z,6.5
2018-04-14T02:02:08.842Z,6.5
2018-04-14T02:03:16.047Z,6.5
2018-04-14T02:04:23.253Z,6.5
2018-04-14T02:05:30.453Z,6.5
2018-04-14T02:06:37.668Z,6.4
2018-04-14T02:07:44.869Z,6.4
2018-04-14T02:08:52.121Z,6.4
2018-04-14T02:09:59.318Z,6.4
2018-04-14T02:11:06.518Z,6.4
2018-04-14T02:12:13.734Z,6.5
2018-04-14T02:13:20.658Z,6.5
2018-04-14T02:14:27.556Z,6.6
2018-04-14T02:15:34.757Z,6.6
2018-04-14T02:16:41.968Z,6.6
2018-04-14T02:17:48.895Z,6.6
2018-04-14T02:18:56.108Z,6.6
2018-04-14T02:20:03.309Z,6.6
2018-04-14T02:21:10.518Z,6.5
2018-04-14T02:22:17.715Z,6.5
2018-04-14T02:23:24.946Z,6.4
2018-04-14T02:24:32.155Z,6.4
2018-04-14T02:25:39.371Z,6.3
2018-04-14T02:26:46.295Z,6.3
2018-04-14T02:27:53.229Z,6.3
2018-04-14T02:29:00.450Z,6.3
2018-04-14T02:30:07.652Z,6.3
2018-04-14T02:31:14.591Z,6.3
2018-04-14T02:32:21.804Z,6.3
2018-04-14T02:33:28.742Z,6.3
2018-04-14T02:34:35.939Z,6.3
2018-04-14T02:35:43.176Z,6.3
2018-04-14T02:36:50.380Z,6.3
2018-04-14T02:37:57.598Z,6.2
2018-04-14T02:39:04.254Z,6.1
2018-04-14T02:40:11.461Z,6.1
2018-04-14T02:41:18.670Z,6.1
2018-04-14T02:42:25.869Z,6.1
2018-04-14T02:43:33.080Z,6
2018-04-14T02:44:40.275Z,6
2018-04-14T02:45:47.476Z,6
2018-04-14T02:46:54.677Z,6
2018-04-14T02:48:01.580Z,6
2018-04-14T02:49:08.812Z,5.9
2018-04-14T02:50:16.015Z,5.9
2018-04-14T02:51:23.224Z,5.9
2018-04-14T02:52:30.434Z,5.8
2018-04-14T02:53:37.638Z,5.8
2018-04-14T02:54:44.849Z,5.8
2018-04-14T02:55:52.084Z,5.8
2018-04-14T02:56:59.284Z,5.7
2018-04-14T02:58:06.539Z,5.7
2018-04-14T02:59:13.740Z,5.7
2018-04-14T03:00:20.952Z,5.7
2018-04-14T03:01:42.801Z,5.7
2018-04-14T03:02:50.004Z,5.8
2018-04-14T03:03:57.221Z,5.8
2018-04-14T03:05:04.438Z,5.7
2018-04-14T03:06:11.648Z,5.7
2018-04-14T03:07:18.852Z,5.7
2018-04-14T03:08:26.054Z,5.7
2018-04-14T03:09:33.258Z,5.8
2018-04-14T03:10:40.454Z,5.8
2018-04-14T03:11:47.654Z,5.7
2018-04-14T03:12:54.852Z,5.7
2018-04-14T03:14:02.105Z,5.6
2018-04-14T03:15:09.308Z,5.7
2018-04-14T03:16:16.506Z,5.7
2018-04-14T03:17:23.943Z,5.7
2018-04-14T03:18:30.872Z,5.7
2018-04-14T03:19:38.091Z,5.7
2018-04-14T03:20:45.293Z,5.6
2018-04-14T03:21:52.519Z,5.6
2018-04-14T03:22:59.724Z,5.5
2018-04-14T03:24:06.921Z,5.5
2018-04-14T03:25:13.853Z,5.5
2018-04-14T03:26:21.067Z,5.5
2018-04-14T03:27:28.268Z,5.5
2018-04-14T03:28:35.479Z,5.4
2018-04-14T03:29:42.403Z,5.5
2018-04-14T03:30:49.605Z,5.5
2018-04-14T03:31:56.804Z,5.5
2018-04-14T03:33:04.062Z,5.5
2018-04-14T03:34:11.254Z,5.5
2018-04-14T03:35:18.502Z,5.5
2018-04-14T03:36:25.704Z,5.4
2018-04-14T03:37:32.908Z,5.4
2018-04-14T03:38:40.125Z,5.4
2018-04-14T03:39:47.329Z,5.3
2018-04-14T03:40:54.265Z,5.3
2018-04-14T03:42:01.464Z,5.4
2018-04-14T03:43:08.392Z,5.3
2018-04-14T03:44:15.337Z,5.3
2018-04-14T03:45:22.540Z,5.3
2018-04-14T03:46:29.756Z,5.2
2018-04-14T03:47:36.689Z,5.2
2018-04-14T03:48:43.920Z,5.2
2018-04-14T03:49:50.843Z,5.3
2018-04-14T03:50:58.059Z,5.2
2018-04-14T03:52:05.257Z,5.2
2018-04-14T03:53:12.466Z,5.2
2018-04-14T03:54:19.674Z,5.2
2018-04-14T03:55:26.905Z,5.2
2018-04-14T03:56:34.114Z,5.2
2018-04-14T03:57:41.044Z,5.2
2018-04-14T03:58:48.244Z,5.2
2018-04-14T03:59:55.452Z,5.2
2018-04-14T04:01:02.664Z,5.3
2018-04-14T04:02:09.868Z,5.3
2018-04-14T04:03:17.074Z,5.3
2018-04-14T04:04:24.283Z,5.4
2018-04-14T04:05:31.501Z,5.5
2018-04-14T04:06:38.704Z,5.5
2018-04-14T04:07:45.914Z,5.5
2018-04-14T04:08:53.116Z,5.5
2018-04-14T04:10:00.056Z,5.5
2018-04-14T04:11:07.261Z,5.5
2018-04-14T04:12:14.469Z,5.4
2018-04-14T04:13:21.672Z,5.4
2018-04-14T04:14:28.619Z,5.3
2018-04-14T04:15:35.831Z,5.3
2018-04-14T04:16:42.751Z,5.3
2018-04-14T04:17:49.405Z,5.2
2018-04-14T04:18:56.608Z,5.2
2018-04-14T04:20:03.814Z,5.3
2018-04-14T04:21:11.016Z,5.3
2018-04-14T04:22:17.944Z,5.2
2018-04-14T04:23:25.148Z,5.2
2018-04-14T04:24:32.348Z,5.2
2018-04-14T04:25:39.548Z,5.2
2018-04-14T04:26:46.756Z,5.1
2018-04-14T04:27:53.952Z,5.2
2018-04-14T04:29:01.153Z,5.2
2018-04-14T04:30:08.361Z,5.1
2018-04-14T04:31:15.562Z,5.1
2018-04-14T04:32:22.498Z,5.1
2018-04-14T04:33:29.699Z,5.2
2018-04-14T04:34:36.908Z,5.2
2018-04-14T04:35:44.108Z,5.2
2018-04-14T04:36:51.311Z,5.2
2018-04-14T04:37:58.512Z,5.1
2018-04-14T04:39:05.722Z,5.1
2018-04-14T04:40:12.930Z,5.1
2018-04-14T04:41:20.129Z,5.1
2018-04-14T04:42:27.056Z,5
2018-04-14T04:43:34.257Z,5
2018-04-14T04:44:41.463Z,5.1
2018-04-14T04:45:48.680Z,5.1
2018-04-14T04:46:55.894Z,5.1
2018-04-14T04:48:03.096Z,5.1
2018-04-14T04:49:10.305Z,5.1
2018-04-14T04:50:17.518Z,5.1
2018-04-14T04:51:24.723Z,5.1
2018-04-14T04:52:31.926Z,5.2
2018-04-14T04:53:38.858Z,5.3
2018-04-14T04:54:45.797Z,5.3
2018-04-14T04:55:53.012Z,5.4
2018-04-14T04:57:00.217Z,5.4
2018-04-14T04:58:07.145Z,5.5
2018-04-14T04:59:14.350Z,5.5
2018-04-14T05:00:21.551Z,5.5
2018-04-14T05:01:28.760Z,5.6
2018-04-14T05:02:35.971Z,5.6
2018-04-14T05:03:43.190Z,5.7
2018-04-14T05:04:50.403Z,5.6
2018-04-14T05:05:57.328Z,5.7
2018-04-14T05:07:04.538Z,5.7
2018-04-14T05:08:11.738Z,5.6
2018-04-14T05:09:18.664Z,5.7
2018-04-14T05:10:25.876Z,5.7
2018-04-14T05:11:33.096Z,5.8
2018-04-14T05:12:40.301Z,5.8
2018-04-14T05:13:47.516Z,5.8
2018-04-14T05:14:54.730Z,5.8
2018-04-14T05:16:01.417Z,5.8
2018-04-14T05:17:08.633Z,5.7
2018-04-14T05:18:15.835Z,5.7
2018-04-14T05:19:23.063Z,5.6
2018-04-14T05:20:30.265Z,5.6
2018-04-14T05:21:37.471Z,5.6
2018-04-14T05:22:44.391Z,5.6
2018-04-14T05:23:51.070Z,5.6
2018-04-14T05:24:58.292Z,5.7
2018-04-14T05:26:05.508Z,5.7
2018-04-14T05:27:12.712Z,5.7
2018-04-14T05:28:19.639Z,5.8
2018-04-14T05:29:26.843Z,5.8
2018-04-14T05:30:34.054Z,5.9
2018-04-14T05:31:41.254Z,5.9
2018-04-14T05:32:48.457Z,6
2018-04-14T05:33:55.680Z,6
2018-04-14T05:35:02.882Z,6
2018-04-14T05:36:10.112Z,6.1
2018-04-14T05:37:17.041Z,6.2
2018-04-14T05:38:24.285Z,6.2
2018-04-14T05:39:31.489Z,6.3
2018-04-14T05:40:38.711Z,6.3
2018-04-14T05:41:45.931Z,6.3
2018-04-14T05:42:53.142Z,6.4
2018-04-14T05:44:00.336Z,6.4
2018-04-14T05:45:07.745Z,6.5
2018-04-14T05:46:14.942Z,6.5
2018-04-14T05:47:22.385Z,6.5
2018-04-14T05:48:29.624Z,6.6
2018-04-14T05:49:37.065Z,6.6
2018-04-14T05:50:44.277Z,6.7
2018-04-14T05:51:51.479Z,6.7
2018-04-14T05:52:58.703Z,6.7
2018-04-14T05:54:05.912Z,6.7
2018-04-14T05:55:12.858Z,6.8
2018-04-14T05:56:20.067Z,6.8
2018-04-14T05:57:27.276Z,6.9
2018-04-14T05:58:34.476Z,6.9
2018-04-14T05:59:41.686Z,7
2018-04-14T06:00:48.920Z,7
2018-04-14T06:01:56.131Z,7.1
2018-04-14T06:03:03.351Z,7.1
2018-04-14T06:04:10.550Z,7.1
2018-04-14T06:05:17.784Z,7.2
2018-04-14T06:06:24.994Z,7.2
2018-04-14T06:07:32.477Z,7.3
2018-04-14T06:08:39.674Z,7.3
2018-04-14T06:09:46.902Z,7.4
2018-04-14T06:10:54.108Z,7.4
2018-04-14T06:12:01.376Z,7.4
2018-04-14T06:13:08.589Z,7.5
2018-04-14T06:14:15.841Z,7.5
2018-04-14T06:15:23.056Z,7.6
2018-04-14T06:16:30.499Z,7.7
2018-04-14T06:17:37.701Z,7.8
2018-04-14T06:18:45.140Z,7.8
2018-04-14T06:19:52.353Z,7.8
2018-04-14T06:20:59.586Z,7.9
2018-04-14T06:22:06.837Z,7.9
2018-04-14T06:23:14.208Z,7.9
2018-04-14T06:24:21.140Z,8
2018-04-14T06:25:28.340Z,8
2018-04-14T06:26:35.557Z,8.1
2018-04-14T06:27:42.765Z,8.2
2018-04-14T06:28:49.978Z,8.2
2018-04-14T06:29:57.220Z,8.2
2018-04-14T06:31:04.441Z,8.3
2018-04-14T06:32:11.633Z,8.4
2018-04-14T06:33:18.561Z,8.5
2018-04-14T06:34:25.773Z,8.6
2018-04-14T06:35:32.971Z,8.7
2018-04-14T06:36:40.180Z,8.8
2018-04-14T06:37:47.386Z,9
2018-04-14T06:38:54.591Z,9.1
2018-04-14T06:40:01.801Z,9.3
2018-04-14T06:41:08.726Z,9.4
2018-04-14T06:42:15.935Z,9.5
2018-04-14T06:43:22.877Z,9.5
2018-04-14T06:44:29.816Z,9.6
2018-04-14T06:45:37.047Z,9.7
2018-04-14T06:46:44.264Z,9.7
2018-04-14T06:47:51.467Z,9.8
2018-04-14T06:48:59.082Z,9.9
2018-04-14T06:50:06.077Z,10
2018-04-14T06:51:13.336Z,10.1
2018-04-14T06:52:20.541Z,10.2
2018-04-14T06:53:27.745Z,10.3
2018-04-14T06:54:34.955Z,10.3
2018-04-14T06:55:42.170Z,10.3
2018-04-14T06:56:49.375Z,10.2
2018-04-14T06:57:56.587Z,10.3
2018-04-14T06:59:03.516Z,10.4
2018-04-14T07:00:10.728Z,10.4
2018-04-14T07:01:17.943Z,10.4
2018-04-14T07:02:25.152Z,10.4
2018-04-14T07:03:32.361Z,10.5
2018-04-14T07:04:39.707Z,10.6
2018-04-14T07:05:46.923Z,10.8
2018-04-14T07:06:53.857Z,11
2018-04-14T07:08:00.788Z,11.1
2018-04-14T07:09:08.000Z,11.2
2018-04-14T07:10:15.211Z,11.2
2018-04-14T07:11:22.424Z,11.1
2018-04-14T07:12:29.630Z,11.1
2018-04-14T07:13:36.834Z,11
2018-04-14T07:14:44.049Z,10.9
2018-04-14T07:15:51.258Z,10.9
2018-04-14T07:16:58.471Z,10.9
2018-04-14T07:18:05.670Z,11.1
2018-04-14T07:19:12.877Z,11
2018-04-14T07:20:19.533Z,11.1
2018-04-14T07:21:26.473Z,11.3
2018-04-14T07:22:33.680Z,11.5
2018-04-14T07:23:40.904Z,11.7
2018-04-14T07:24:48.331Z,11.9
2018-04-14T07:25:55.260Z,11.9
2018-04-14T07:27:02.464Z,11.9
2018-04-14T07:28:09.689Z,11.8
2018-04-14T07:29:16.913Z,11.6
2018-04-14T07:30:24.161Z,11.6
2018-04-14T07:31:31.380Z,11.7
2018-04-14T07:32:38.593Z,11.7
2018-04-14T07:33:45.531Z,11.7
2018-04-14T07:34:52.781Z,11.8
2018-04-14T07:35:59.711Z,11.9
2018-04-14T07:37:06.911Z,12.1
2018-04-14T07:38:13.581Z,12.2
2018-04-14T07:39:20.522Z,12.2
2018-04-14T07:40:27.458Z,12.1
2018-04-14T07:41:34.385Z,12.1
2018-04-14T07:42:41.611Z,12.1
2018-04-14T07:43:48.813Z,12.2
2018-04-14T07:44:55.749Z,12.2
2018-04-14T07:46:03.046Z,12.2
2018-04-14T07:47:10.259Z,12.2
2018-04-14T07:48:17.466Z,12.4
2018-04-14T07:49:24.678Z,12.4
2018-04-14T07:50:31.888Z,12.6
2018-04-14T07:51:39.120Z,12.7
2018-04-14T07:52:46.448Z,12.8
2018-04-14T07:53:53.371Z,12.8
2018-04-14T07:55:00.629Z,12.6
2018-04-14T07:56:07.830Z,12.7
2018-04-14T07:57:14.770Z,12.7
2018-04-14T07:58:21.976Z,12.8
2018-04-14T07:59:28.906Z,12.7
2018-04-14T08:00:36.138Z,12.7
2018-04-14T08:01:43.352Z,12.9
2018-04-14T08:02:50.576Z,13.1
2018-04-14T08:03:57.796Z,13.1
2018-04-14T08:05:05.030Z,13
2018-04-14T08:06:12.344Z,13.1
2018-04-14T08:07:19.327Z,12.9
2018-04-14T08:08:26.540Z,13.1
2018-04-14T08:09:33.751Z,13.1
2018-04-14T08:10:40.995Z,13.1
2018-04-14T08:11:47.921Z,13.1
2018-04-14T08:12:55.134Z,13.2
2018-04-14T08:14:02.366Z,13.3
2018-04-14T08:15:09.582Z,13.5
2018-04-14T08:16:16.525Z,13.8
2018-04-14T08:17:23.469Z,13.9
2018-04-14T08:18:30.136Z,14.1
2018-04-14T08:19:37.346Z,14.1
2018-04-14T08:20:44.555Z,14.3
2018-04-14T08:21:51.776Z,14.1
2018-04-14T08:22:58.989Z,14.3
2018-04-14T08:24:05.931Z,14.5
2018-04-14T08:25:13.145Z,14.6
2018-04-14T08:26:19.921Z,14.6
2018-04-14T08:27:26.862Z,14.4
2018-04-14T08:28:34.077Z,14.5
2018-04-14T08:29:41.031Z,14.5
2018-04-14T08:30:48.498Z,14.5
2018-04-14T08:31:55.943Z,14.8
2018-04-14T08:33:02.876Z,15.1
2018-04-14T08:34:10.318Z,15.4
2018-04-14T08:35:17.533Z,15.6
2018-04-14T08:36:24.752Z,15.6
2018-04-14T08:37:32.098Z,15.7
2018-04-14T08:38:39.354Z,15.6
2018-04-14T08:39:46.596Z,15.7
2018-04-14T08:40:53.820Z,15.9
2018-04-14T08:42:01.038Z,16.1
2018-04-14T08:43:08.284Z,15.9
2018-04-14T08:44:15.490Z,15.9
2018-04-14T08:45:22.934Z,15.9
2018-04-14T08:46:30.146Z,15.9
2018-04-14T08:47:37.592Z,16
2018-04-14T08:48:44.804Z,16.3
2018-04-14T08:49:52.253Z,16.5
2018-04-14T08:50:59.463Z,16.5
2018-04-14T08:52:06.685Z,16.6
2018-04-14T08:53:13.913Z,16.6
2018-04-14T08:54:21.143Z,16.7
2018-04-14T08:55:28.357Z,16.8
2018-04-14T08:56:35.322Z,17
2018-04-14T08:57:42.539Z,17.1
2018-04-14T08:58:49.751Z,16.8
2018-04-14T08:59:56.969Z,16.8
2018-04-14T09:01:04.418Z,17
2018-04-14T09:02:11.636Z,17.1
2018-04-14T09:03:18.852Z,17.1
2018-04-14T09:04:26.086Z,17.1
2018-04-14T09:05:33.306Z,17
2018-04-14T09:06:40.521Z,16.9
2018-04-14T09:07:47.740Z,16.9
2018-04-14T09:08:54.961Z,16.9
2018-04-14T09:10:02.183Z,17.2
2018-04-14T09:11:09.119Z,17.7
2018-04-14T09:12:16.332Z,18
2018-04-14T09:13:23.557Z,17.9
2018-04-14T09:14:30.790Z,17.5
2018-04-14T09:15:38.006Z,17.5
2018-04-14T09:16:45.457Z,17.4
2018-04-14T09:17:52.670Z,17.4
2018-04-14T09:18:59.903Z,17.3
2018-04-14T09:20:06.572Z,17.5
2018-04-14T09:21:13.551Z,17.8
2018-04-14T09:22:20.767Z,17.9
2018-04-14T09:23:28.251Z,17.9
2018-04-14T09:24:35.693Z,18
2018-04-14T09:25:43.141Z,17.9
2018-04-14T09:26:50.371Z,17.8
2018-04-14T09:27:57.601Z,17.7
2018-04-14T09:29:04.818Z,17.8
2018-04-14T09:30:12.038Z,18.1
2018-04-14T09:31:19.254Z,18.4
2018-04-14T09:32:26.486Z,18.3
2018-04-14T09:33:33.739Z,18.4
2018-04-14T09:34:40.990Z,18.7
2018-04-14T09:35:48.213Z,18.9
2018-04-14T09:36:55.181Z,18.8
2018-04-14T09:38:02.413Z,18.8
2018-04-14T09:39:09.384Z,19.2
2018-04-14T09:40:16.364Z,19.3
2018-04-14T09:41:23.575Z,19.3
2018-04-14T09:42:30.814Z,19.4
2018-04-14T09:43:38.016Z,19.1
2018-04-14T09:44:45.258Z,18.9
2018-04-14T09:45:52.221Z,19
2018-04-14T09:46:59.456Z,18.7
2018-04-14T09:48:06.401Z,18.7
2018-04-14T09:49:13.638Z,18.4
2018-04-14T09:50:20.577Z,18.4
2018-04-14T09:51:27.515Z,18.2
2018-04-14T09:52:34.765Z,18.4
2018-04-14T09:53:41.998Z,18.5
2018-04-14T09:54:49.212Z,18.6
2018-04-14T09:55:56.428Z,18.8
2018-04-14T09:57:03.369Z,18.5
2018-04-14T09:58:10.603Z,18.3
2018-04-14T09:59:17.844Z,18.4
2018-04-14T10:00:25.067Z,18.7
2018-04-14T10:01:32.290Z,18.9
2018-04-14T10:02:39.507Z,19.3
2018-04-14T10:03:46.732Z,19.7
2018-04-14T10:04:53.970Z,19.8
2018-04-14T10:06:01.219Z,19.5
2018-04-14T10:07:08.459Z,19.4
2018-04-14T10:08:15.400Z,19.7
2018-04-14T10:09:22.340Z,19.7
2018-04-14T10:10:29.636Z,19.7
2018-04-14T10:11:37.192Z,19.8
2018-04-14T10:12:44.405Z,20
2018-04-14T10:13:51.618Z,20.4
2018-04-14T10:14:58.842Z,20.7
2018-04-14T22:00:06.158Z,9
2018-04-14T22:01:13.382Z,9
2018-04-14T22:02:20.593Z,9
2018-04-14T22:03:27.802Z,9
2018-04-14T22:04:35.007Z,9
2018-04-14T22:05:42.214Z,8.9
2018-04-14T22:06:49.432Z,8.9
2018-04-14T22:07:56.656Z,8.9
2018-04-14T22:09:03.884Z,8.9
2018-04-14T22:10:11.092Z,8.9
2018-04-14T22:11:18.051Z,8.9
2018-04-14T22:12:24.984Z,8.9
2018-04-14T22:13:31.908Z,8.9
2018-04-14T22:14:38.840Z,8.9
2018-04-14T22:15:46.069Z,8.9
2018-04-14T22:16:52.743Z,8.9
2018-04-14T22:17:59.962Z,8.8
2018-04-14T22:19:06.909Z,8.9
2018-04-14T22:20:14.353Z,8.9
2018-04-14T22:21:21.560Z,8.8
2018-04-14T22:22:29.002Z,8.8
2018-04-14T22:23:36.216Z,8.9
2018-04-14T22:24:43.441Z,8.9
2018-04-14T22:25:50.688Z,8.9
2018-04-14T22:26:57.906Z,8.9
2018-04-14T22:28:05.123Z,8.9
2018-04-14T22:29:12.329Z,8.9
2018-04-14T22:30:19.539Z,8.9
2018-04-14T22:31:26.741Z,8.9
2018-04-14T22:32:33.666Z,8.8
2018-04-14T22:33:40.878Z,8.9
2018-04-14T22:34:47.811Z,8.8
2018-04-14T22:35:55.013Z,8.8
2018-04-14T22:37:02.221Z,8.8
2018-04-14T22:38:09.440Z,8.9
2018-04-14T22:39:16.668Z,8.9
2018-04-14T22:40:23.897Z,8.9
2018-04-14T22:41:31.102Z,8.9
2018-04-14T22:42:38.330Z,8.9
2018-04-14T22:43:45.537Z,8.9
2018-04-14T22:44:52.785Z,8.9
2018-04-14T22:45:59.720Z,8.9
2018-04-14T22:47:06.954Z,8.9
2018-04-14T22:48:14.168Z,8.9
2018-04-14T22:49:21.414Z,8.9
2018-04-14T22:50:28.621Z,9
2018-04-14T22:51:36.070Z,9
2018-04-14T22:52:43.277Z,9
2018-04-14T22:53:50.495Z,9
2018-04-14T22:54:57.721Z,9
2018-04-14T22:56:04.948Z,8.9
2018-04-14T22:57:12.157Z,9
2018-04-14T22:58:19.382Z,8.9
2018-04-14T22:59:26.323Z,9
2018-04-14T23:00:33.560Z,9
2018-04-14T23:01:40.779Z,8.9
2018-04-14T23:02:48.013Z,8.9
2018-04-14T23:03:55.231Z,8.9
2018-04-14T23:05:02.677Z,9
2018-04-14T23:06:09.904Z,9
2018-04-14T23:07:16.837Z,9
2018-04-14T23:08:24.069Z,9
2018-04-14T23:09:31.278Z,9
2018-04-14T23:10:38.212Z,8.9
2018-04-14T23:11:45.168Z,8.9
2018-04-14T23:12:52.383Z,8.9
2018-04-14T23:13:59.622Z,8.9
2018-04-14T23:15:06.829Z,8.9
2018-04-14T23:16:14.056Z,8.9
2018-04-14T23:17:21.270Z,8.9
2018-04-14T23:18:28.220Z,8.9
2018-04-14T23:19:35.147Z,8.9
2018-04-14T23:20:42.383Z,8.9
2018-04-14T23:21:49.620Z,8.9
2018-04-14T23:22:57.061Z,8.9
2018-04-14T23:24:04.281Z,8.9
2018-04-14T23:25:11.485Z,8.9
2018-04-14T23:26:18.714Z,9
2018-04-14T23:27:25.922Z,9
2018-04-14T23:28:32.898Z,9
2018-04-14T23:29:40.107Z,9
2018-04-14T23:30:47.305Z,9.1
2018-04-14T23:31:54.521Z,9.1
2018-04-14T23:33:00.912Z,9.1
2018-04-14T23:34:08.117Z,9.1
2018-04-14T23:35:15.339Z,9.1
2018-04-14T23:36:22.575Z,9.1
2018-04-14T23:37:29.782Z,9.1
2018-04-14T23:38:36.966Z,9.1
2018-04-14T23:39:44.174Z,9.1
2018-04-14T23:40:51.597Z,9.1
2018-04-14T23:41:58.808Z,9.1
2018-04-14T23:43:06.228Z,9.1
2018-04-14T23:44:13.467Z,9.1
2018-04-14T23:45:20.405Z,9.1
2018-04-14T23:46:27.609Z,9
2018-04-14T23:47:34.815Z,9
2018-04-14T23:48:42.044Z,9
2018-04-14T23:49:49.249Z,9
2018-04-14T23:50:56.452Z,9
2018-04-14T23:52:03.897Z,9
2018-04-14T23:53:11.108Z,9
2018-04-14T23:54:18.547Z,8.9
2018-04-14T23:55:25.773Z,8.9
2018-04-14T23:56:33.203Z,8.8
2018-04-14T23:57:40.401Z,8.8
2018-04-14T23:58:47.844Z,8.8
2018-04-14T23:59:55.052Z,8.8
